Bahri Jeddah — HZFG — position and weather

sailwx.info

Track history (hours):
 
Tides and Currents Weather Stations Pressure Air Temp Water Temp Dewpoint Dewpoint Depression Visibility Wind Speed Wind Dir Waves Ship Positions

Bahri Jeddah

Last reported at 2017-Aug-26 05:17 UTC. Time now 2017-Sep-23 00:31 UTC.
Position N 30°48' E 032°19'.
Warning: this ship's position is 27 days out of date.

Length 225 m; draft 8.9 m.

Type: Cargo ship. MMSI: 403531001.

Date/timePositionNaut miles runAvg speedWind from/ knotsBaromVisibWave heightAir tempDewpointWater temp
2017-Aug-26 05:17N 30°48' E 032°19'2 8.8
2017-Aug-26 05:00N 30°50' E 032°19'33 4.3
2017-Aug-25 21:20N 31°23' E 032°20'0 0.0
2017-Aug-25 20:59N 31°23' E 032°20'19 2.0
2017-Aug-25 11:48N 31°37' E 032°06'412.9
2017-Aug-25 11:28N 31°40' E 032°02'612.8
2017-Aug-25 11:00N 31°44' E 031°57'812.6
2017-Aug-25 10:20N 31°48' E 031°49'  
2017-Aug-23 00:33N 36°20' E 014°44'116.3
2017-Aug-23 00:30N 36°21' E 014°43'816.4
2017-Aug-23 00:01N 36°23' E 014°34'816.2
2017-Aug-22 23:30N 36°25' E 014°24'816.0
2017-Aug-22 23:00N 36°28' E 014°15'815.9
2017-Aug-22 22:31N 36°31' E 014°05'815.9
2017-Aug-22 22:00N 36°33' E 013°56'815.9
2017-Aug-22 21:30N 36°35' E 013°46'815.9
2017-Aug-22 20:59N 36°37' E 013°36'815.9
2017-Aug-22 20:30N 36°38' E 013°27'816.0
2017-Aug-22 20:00N 36°40' E 013°17'816.1
2017-Aug-22 19:30N 36°42' E 013°07'816.0
2017-Aug-22 19:00N 36°45' E 012°58'13615.8
2017-Aug-22 10:24N 37°33' E 010°18'615.7
2017-Aug-22 10:00N 37°34' E 010°11'815.7
2017-Aug-22 09:30N 37°34' E 010°01'815.6
2017-Aug-22 09:00N 37°34' E 009°51'815.2
2017-Aug-22 08:30N 37°35' E 009°41'815.2
2017-Aug-22 08:00N 37°36' E 009°32'815.6
2017-Aug-22 07:30N 37°36' E 009°22'2216.1
2017-Aug-22 06:09N 37°38' E 008°55'415.9
2017-Aug-22 05:55N 37°39' E 008°50'715.9
2017-Aug-22 05:30N 37°39' E 008°42'27515.6
2017-Aug-21 11:52N 37°15' E 002°57'615.3
2017-Aug-21 11:30N 37°14' E 002°50'815.1
2017-Aug-21 11:00N 37°12' E 002°41'1114.8
2017-Aug-21 10:17N 37°09' E 002°28'614.7
2017-Aug-21 09:54N 37°08' E 002°21'714.7
2017-Aug-21 09:25N 37°06' E 002°12'1014.6
2017-Aug-21 08:45N 37°04' E 002°00'414.5
2017-Aug-21 08:28N 37°03' E 001°55'714.4
2017-Aug-21 07:58N 37°02' E 001°46'1014.4
2017-Aug-21 07:18N 36°59' E 001°35'414.2
2017-Aug-21 07:01N 36°58' E 001°30'713.8
2017-Aug-21 06:30N 36°56' E 001°21'814.2
2017-Aug-21 05:56N 36°55' E 001°12'714.8
2017-Aug-21 05:28N 36°52' E 001°03'715.8
2017-Aug-21 05:00N 36°51' E 000°55'815.5
2017-Aug-21 04:30N 36°49' E 000°45'815.7
2017-Aug-21 04:01N 36°47' E 000°36'815.8
2017-Aug-21 03:30N 36°45' E 000°26'815.3
2017-Aug-21 03:00N 36°43' E 000°17'714.8
2017-Aug-21 02:31N 36°41' E 000°08'814.8
2017-Aug-21 01:59N 36°39' W 000°02'814.4
2017-Aug-21 01:23N 36°37' W 000°12'614.5
2017-Aug-21 01:01N 36°35' W 000°18'714.7
2017-Aug-21 00:31N 36°34' W 000°27'714.7
2017-Aug-21 00:00N 36°32' W 000°36'714.7
2017-Aug-20 23:30N 36°30' W 000°45'714.6
2017-Aug-20 23:00N 36°28' W 000°54'714.6
2017-Aug-20 22:30N 36°26' W 001°03'20015.8
2017-Aug-20 09:50N 35°59' W 005°08'515.3
2017-Aug-20 09:31N 35°58' W 005°14'714.4
2017-Aug-20 09:00N 35°58' W 005°23'1514.1
2017-Aug-20 07:58N 35°56' W 005°41'1814.0
2017-Aug-20 06:42N 35°53' W 006°03'714.5
2017-Aug-20 06:12N 35°53' W 006°12'314.8
2017-Aug-20 06:00N 35°53' W 006°15'5214.4
2017-Aug-20 02:22N 36°04' W 007°18'1015.5
2017-Aug-20 01:43N 36°08' W 007°30'615.6
2017-Aug-20 01:21N 36°09' W 007°37'1215.9
2017-Aug-20 00:37N 36°12' W 007°51'216.1
2017-Aug-20 00:30N 36°13' W 007°53'1916.1
2017-Aug-19 23:18N 36°19' W 008°16'516.1
2017-Aug-19 23:00N 36°20' W 008°22'815.9
2017-Aug-19 22:31N 36°23' W 008°31'815.8
2017-Aug-19 22:00N 36°26' W 008°40'815.7
2017-Aug-19 21:30N 36°28' W 008°49'816.0
2017-Aug-19 21:00N 36°31' W 008°59'815.9
2017-Aug-19 20:31N 36°33' W 009°08'815.6
2017-Aug-19 20:01N 36°35' W 009°17'815.8
2017-Aug-19 19:31N 36°41' W 009°24'816.0
2017-Aug-19 19:01N 36°47' W 009°31'815.9
2017-Aug-19 18:31N 36°54' W 009°36'816.6
2017-Aug-19 18:01N 37°02' W 009°38'816.4
2017-Aug-19 17:31N 37°10' W 009°40'816.3
2017-Aug-19 17:00N 37°18' W 009°42'816.0
2017-Aug-19 16:30N 37°26' W 009°45'815.6
2017-Aug-19 16:00N 37°33' W 009°47'816.2
2017-Aug-19 15:31N 37°41' W 009°50'816.1
2017-Aug-19 15:01N 37°49' W 009°51'1616.3
2017-Aug-19 14:01N 38°05' W 009°55'816.1
2017-Aug-19 13:31N 38°13' W 009°57'816.0
2017-Aug-19 13:00N 38°20' W 009°60'816.0
2017-Aug-19 12:31N 38°28' W 010°02'816.2
2017-Aug-19 12:01N 38°36' W 010°05'816.2
2017-Aug-19 11:31N 38°44' W 010°07'816.2
2017-Aug-19 11:01N 38°52' W 010°06'815.9
2017-Aug-19 10:31N 39°00' W 010°05'815.9
2017-Aug-19 10:00N 39°08' W 010°05'816.0
2017-Aug-19 09:30N 39°16' W 010°06'816.7
2017-Aug-19 09:01N 39°24' W 010°06'816.3
2017-Aug-19 08:31N 39°32' W 010°06'816.5
2017-Aug-19 08:01N 39°41' W 010°05'816.2
2017-Aug-19 07:31N 39°49' W 010°05'816.1
2017-Aug-19 07:01N 39°57' W 010°06'816.4
2017-Aug-19 06:30N 40°05' W 010°06'816.0
2017-Aug-19 06:01N 40°13' W 010°06'816.3
2017-Aug-19 05:31N 40°21' W 010°06'816.3
2017-Aug-19 05:00N 40°29' W 010°06'816.5
2017-Aug-19 04:30N 40°38' W 010°05'816.5
2017-Aug-19 04:01N 40°46' W 010°04'816.5
2017-Aug-19 03:31N 40°54' W 010°04'1316.3
2017-Aug-19 02:44N 41°07' W 010°05'816.4
2017-Aug-19 02:14N 41°15' W 010°05'416.5
2017-Aug-19 02:00N 41°19' W 010°05'22112.2
2017-Aug-18 07:48N 43°53' W 006°30'515.7
2017-Aug-18 07:28N 43°52' W 006°22'815.6
2017-Aug-18 06:57N 43°51' W 006°11'715.2
2017-Aug-18 06:31N 43°50' W 006°02'815.6
2017-Aug-18 06:01N 43°49' W 005°51'815.2
2017-Aug-18 05:31N 43°48' W 005°41'815.3
2017-Aug-18 05:00N 43°48' W 005°30'715.0
2017-Aug-18 04:30N 43°46' W 005°20'815.4
2017-Aug-18 04:00N 43°44' W 005°10'815.7
2017-Aug-18 03:31N 43°44' W 004°59'815.9
2017-Aug-18 03:00N 43°43' W 004°48'4516.0
2017-Aug-18 00:12N 43°38' W 003°47'36 6.0
2017-Aug-17 18:16N 43°21' W 003°03'  
Track history (hours):
 
Tides and Currents Weather Stations Pressure Air Temp Water Temp Dewpoint Dewpoint Depression Visibility Wind Speed Wind Dir Waves Ship Positions

Bahri Jeddah

Last reported at 2017-Aug-26 05:17 UTC. Time now 2017-Sep-23 00:31 UTC.
Position N 30°48' E 032°19'.
Warning: this ship's position is 27 days out of date.

Length 225 m; draft 8.9 m.

Type: Cargo ship. MMSI: 403531001.

Date/timePositionNaut miles runAvg speedWind from/ knotsBaromVisibWave heightAir tempDewpointWater temp
2017-Aug-26 05:17N 30°48' E 032°19'2 8.8
2017-Aug-26 05:00N 30°50' E 032°19'33 4.3
2017-Aug-25 21:20N 31°23' E 032°20'0 0.0
2017-Aug-25 20:59N 31°23' E 032°20'19 2.0
2017-Aug-25 11:48N 31°37' E 032°06'412.9
2017-Aug-25 11:28N 31°40' E 032°02'612.8
2017-Aug-25 11:00N 31°44' E 031°57'812.6
2017-Aug-25 10:20N 31°48' E 031°49'  
2017-Aug-23 00:33N 36°20' E 014°44'116.3
2017-Aug-23 00:30N 36°21' E 014°43'816.4
2017-Aug-23 00:01N 36°23' E 014°34'816.2
2017-Aug-22 23:30N 36°25' E 014°24'816.0
2017-Aug-22 23:00N 36°28' E 014°15'815.9
2017-Aug-22 22:31N 36°31' E 014°05'815.9
2017-Aug-22 22:00N 36°33' E 013°56'815.9
2017-Aug-22 21:30N 36°35' E 013°46'815.9
2017-Aug-22 20:59N 36°37' E 013°36'815.9
2017-Aug-22 20:30N 36°38' E 013°27'816.0
2017-Aug-22 20:00N 36°40' E 013°17'816.1
2017-Aug-22 19:30N 36°42' E 013°07'816.0
2017-Aug-22 19:00N 36°45' E 012°58'13615.8
2017-Aug-22 10:24N 37°33' E 010°18'615.7
2017-Aug-22 10:00N 37°34' E 010°11'815.7
2017-Aug-22 09:30N 37°34' E 010°01'815.6
2017-Aug-22 09:00N 37°34' E 009°51'815.2
2017-Aug-22 08:30N 37°35' E 009°41'815.2
2017-Aug-22 08:00N 37°36' E 009°32'815.6
2017-Aug-22 07:30N 37°36' E 009°22'2216.1
2017-Aug-22 06:09N 37°38' E 008°55'415.9
2017-Aug-22 05:55N 37°39' E 008°50'715.9
2017-Aug-22 05:30N 37°39' E 008°42'27515.6
2017-Aug-21 11:52N 37°15' E 002°57'615.3
2017-Aug-21 11:30N 37°14' E 002°50'815.1
2017-Aug-21 11:00N 37°12' E 002°41'1114.8
2017-Aug-21 10:17N 37°09' E 002°28'614.7
2017-Aug-21 09:54N 37°08' E 002°21'714.7
2017-Aug-21 09:25N 37°06' E 002°12'1014.6
2017-Aug-21 08:45N 37°04' E 002°00'414.5
2017-Aug-21 08:28N 37°03' E 001°55'714.4
2017-Aug-21 07:58N 37°02' E 001°46'1014.4
2017-Aug-21 07:18N 36°59' E 001°35'414.2
2017-Aug-21 07:01N 36°58' E 001°30'713.8
2017-Aug-21 06:30N 36°56' E 001°21'814.2
2017-Aug-21 05:56N 36°55' E 001°12'714.8
2017-Aug-21 05:28N 36°52' E 001°03'715.8
2017-Aug-21 05:00N 36°51' E 000°55'815.5
2017-Aug-21 04:30N 36°49' E 000°45'815.7
2017-Aug-21 04:01N 36°47' E 000°36'815.8
2017-Aug-21 03:30N 36°45' E 000°26'815.3
2017-Aug-21 03:00N 36°43' E 000°17'714.8
2017-Aug-21 02:31N 36°41' E 000°08'814.8
2017-Aug-21 01:59N 36°39' W 000°02'814.4
2017-Aug-21 01:23N 36°37' W 000°12'614.5
2017-Aug-21 01:01N 36°35' W 000°18'714.7
2017-Aug-21 00:31N 36°34' W 000°27'714.7
2017-Aug-21 00:00N 36°32' W 000°36'714.7
2017-Aug-20 23:30N 36°30' W 000°45'714.6
2017-Aug-20 23:00N 36°28' W 000°54'714.6
2017-Aug-20 22:30N 36°26' W 001°03'20015.8
2017-Aug-20 09:50N 35°59' W 005°08'515.3
2017-Aug-20 09:31N 35°58' W 005°14'714.4
2017-Aug-20 09:00N 35°58' W 005°23'1514.1
2017-Aug-20 07:58N 35°56' W 005°41'1814.0
2017-Aug-20 06:42N 35°53' W 006°03'714.5
2017-Aug-20 06:12N 35°53' W 006°12'314.8
2017-Aug-20 06:00N 35°53' W 006°15'5214.4
2017-Aug-20 02:22N 36°04' W 007°18'1015.5
2017-Aug-20 01:43N 36°08' W 007°30'615.6
2017-Aug-20 01:21N 36°09' W 007°37'1215.9
2017-Aug-20 00:37N 36°12' W 007°51'216.1
2017-Aug-20 00:30N 36°13' W 007°53'1916.1
2017-Aug-19 23:18N 36°19' W 008°16'516.1
2017-Aug-19 23:00N 36°20' W 008°22'815.9
2017-Aug-19 22:31N 36°23' W 008°31'815.8
2017-Aug-19 22:00N 36°26' W 008°40'815.7
2017-Aug-19 21:30N 36°28' W 008°49'816.0
2017-Aug-19 21:00N 36°31' W 008°59'815.9
2017-Aug-19 20:31N 36°33' W 009°08'815.6
2017-Aug-19 20:01N 36°35' W 009°17'815.8
2017-Aug-19 19:31N 36°41' W 009°24'816.0
2017-Aug-19 19:01N 36°47' W 009°31'815.9
2017-Aug-19 18:31N 36°54' W 009°36'816.6
2017-Aug-19 18:01N 37°02' W 009°38'816.4
2017-Aug-19 17:31N 37°10' W 009°40'816.3
2017-Aug-19 17:00N 37°18' W 009°42'816.0
2017-Aug-19 16:30N 37°26' W 009°45'815.6
2017-Aug-19 16:00N 37°33' W 009°47'816.2
2017-Aug-19 15:31N 37°41' W 009°50'816.1
2017-Aug-19 15:01N 37°49' W 009°51'1616.3
2017-Aug-19 14:01N 38°05' W 009°55'816.1
2017-Aug-19 13:31N 38°13' W 009°57'816.0
2017-Aug-19 13:00N 38°20' W 009°60'816.0
2017-Aug-19 12:31N 38°28' W 010°02'816.2
2017-Aug-19 12:01N 38°36' W 010°05'816.2
2017-Aug-19 11:31N 38°44' W 010°07'816.2
2017-Aug-19 11:01N 38°52' W 010°06'815.9
2017-Aug-19 10:31N 39°00' W 010°05'815.9
2017-Aug-19 10:00N 39°08' W 010°05'816.0
2017-Aug-19 09:30N 39°16' W 010°06'816.7
2017-Aug-19 09:01N 39°24' W 010°06'816.3
2017-Aug-19 08:31N 39°32' W 010°06'816.5
2017-Aug-19 08:01N 39°41' W 010°05'816.2
2017-Aug-19 07:31N 39°49' W 010°05'816.1
2017-Aug-19 07:01N 39°57' W 010°06'816.4
2017-Aug-19 06:30N 40°05' W 010°06'816.0
2017-Aug-19 06:01N 40°13' W 010°06'816.3
2017-Aug-19 05:31N 40°21' W 010°06'816.3
2017-Aug-19 05:00N 40°29' W 010°06'816.5
2017-Aug-19 04:30N 40°38' W 010°05'816.5
2017-Aug-19 04:01N 40°46' W 010°04'816.5
2017-Aug-19 03:31N 40°54' W 010°04'1316.3
2017-Aug-19 02:44N 41°07' W 010°05'816.4
2017-Aug-19 02:14N 41°15' W 010°05'416.5
2017-Aug-19 02:00N 41°19' W 010°05'22112.2
2017-Aug-18 07:48N 43°53' W 006°30'515.7
2017-Aug-18 07:28N 43°52' W 006°22'815.6
2017-Aug-18 06:57N 43°51' W 006°11'715.2
2017-Aug-18 06:31N 43°50' W 006°02'815.6
2017-Aug-18 06:01N 43°49' W 005°51'815.2
2017-Aug-18 05:31N 43°48' W 005°41'815.3
2017-Aug-18 05:00N 43°48' W 005°30'715.0
2017-Aug-18 04:30N 43°46' W 005°20'815.4
2017-Aug-18 04:00N 43°44' W 005°10'815.7
2017-Aug-18 03:31N 43°44' W 004°59'815.9
2017-Aug-18 03:00N 43°43' W 004°48'4516.0
2017-Aug-18 00:12N 43°38' W 003°47'36 6.0
2017-Aug-17 18:16N 43°21' W 003°03'  

Dump ship's entire track history